createdAt,value
2022-10-19T00:00:42.992Z,21.95
2022-10-19T00:05:52.425Z,21.95
2022-10-19T00:10:56.412Z,21.93
2022-10-19T00:16:00.037Z,21.92
2022-10-19T00:21:08.657Z,21.90
2022-10-19T00:26:20.531Z,21.89
2022-10-19T00:31:24.135Z,21.86
2022-10-19T00:36:37.189Z,21.82
2022-10-19T00:41:47.144Z,21.79
2022-10-19T00:47:01.631Z,21.75
2022-10-19T00:52:17.434Z,21.73
2022-10-19T00:57:23.312Z,21.71
2022-10-19T01:05:26.525Z,21.66
2022-10-19T01:10:58.054Z,21.68
2022-10-19T01:16:29.139Z,21.66
2022-10-19T01:21:48.386Z,21.62
2022-10-19T01:27:22.541Z,21.61
2022-10-19T01:33:05.297Z,21.59
2022-10-19T01:38:34.938Z,21.57
2022-10-19T01:44:12.630Z,21.54
2022-10-19T01:49:54.582Z,21.48
2022-10-19T01:55:05.952Z,21.47
2022-10-19T02:00:26.524Z,21.46
2022-10-19T02:05:48.168Z,21.44
2022-10-19T02:10:52.362Z,21.41
2022-10-19T02:16:06.657Z,21.41
2022-10-19T02:21:15.894Z,21.38
2022-10-19T02:26:21.999Z,21.37
2022-10-19T02:31:30.325Z,21.34
2022-10-19T02:36:34.179Z,21.32
2022-10-19T02:42:08.814Z,21.29
2022-10-19T02:47:40.480Z,21.29
2022-10-19T02:52:48.217Z,21.26
2022-10-19T02:57:57.539Z,21.27
2022-10-19T03:03:11.240Z,21.28
2022-10-19T03:08:14.700Z,21.30
2022-10-19T03:13:22.197Z,21.29
2022-10-19T03:18:26.115Z,21.27
2022-10-19T03:23:32.317Z,21.29
2022-10-19T03:34:07.097Z,21.34
2022-10-19T03:39:23.325Z,21.34
2022-10-19T03:44:35.230Z,21.37
2022-10-19T03:49:45.923Z,21.41
2022-10-19T03:54:54.701Z,21.41
2022-10-19T03:59:57.929Z,21.42
2022-10-19T04:05:05.843Z,21.42
2022-10-19T04:10:19.678Z,21.42
2022-10-19T04:15:22.953Z,21.43
2022-10-19T04:20:27.131Z,21.45
2022-10-19T04:25:31.663Z,21.45
2022-10-19T04:30:37.700Z,21.42
2022-10-19T04:35:46.370Z,21.42
2022-10-19T04:41:02.214Z,21.40
2022-10-19T04:46:23.711Z,21.36
2022-10-19T04:51:31.890Z,21.31
2022-10-19T05:02:01.078Z,21.25
2022-10-19T05:07:06.784Z,21.21
2022-10-19T05:12:14.288Z,21.18
2022-10-19T05:17:20.960Z,21.18
2022-10-19T05:22:26.884Z,21.18
2022-10-19T05:27:32.360Z,21.19
2022-10-19T05:32:42.742Z,21.18
2022-10-19T05:37:49.383Z,21.18
2022-10-19T05:42:55.018Z,21.16
2022-10-19T05:47:59.104Z,21.16
2022-10-19T05:53:05.489Z,21.18
2022-10-19T05:58:12.236Z,21.20
2022-10-19T06:03:17.980Z,21.21
2022-10-19T06:08:26.143Z,21.22
2022-10-19T06:13:32.616Z,21.22
2022-10-19T06:18:43.105Z,21.25
2022-10-19T06:23:56.990Z,21.24
2022-10-19T06:29:07.639Z,21.28
2022-10-19T06:34:22.519Z,21.36
2022-10-19T06:39:41.001Z,21.42
2022-10-19T06:44:50.378Z,21.45
2022-10-19T06:50:02.822Z,21.49
2022-10-19T06:55:08.280Z,21.52
2022-10-19T07:00:12.760Z,21.54
2022-10-19T07:05:18.418Z,21.57
2022-10-19T07:10:27.670Z,21.61
2022-10-19T07:15:33.192Z,21.67
2022-10-19T07:20:49.040Z,21.71
2022-10-19T07:26:12.589Z,21.74
2022-10-19T07:31:30.023Z,21.76
2022-10-19T07:36:42.387Z,21.77
2022-10-19T07:42:04.674Z,21.79
2022-10-19T07:47:14.784Z,21.83
2022-10-19T07:52:20.606Z,21.85
2022-10-19T07:57:35.483Z,21.87
2022-10-19T08:02:54.711Z,21.92
2022-10-19T08:08:05.042Z,21.95
2022-10-19T08:13:17.318Z,22.00
2022-10-19T08:18:26.394Z,22.08
2022-10-19T08:23:30.525Z,22.15
2022-10-19T08:28:45.985Z,22.20
2022-10-19T08:34:32.818Z,22.24
2022-10-19T08:39:46.238Z,22.34
2022-10-19T08:45:28.055Z,22.45
2022-10-19T08:50:48.014Z,22.72
2022-10-19T08:56:51.128Z,22.88
2022-10-19T09:02:34.981Z,23.11
2022-10-19T09:07:48.369Z,23.36
2022-10-19T09:13:08.011Z,23.87
2022-10-19T09:18:25.863Z,24.65
2022-10-19T09:24:11.141Z,25.16
2022-10-19T09:29:32.236Z,25.57
2022-10-19T09:46:09.517Z,25.70
2022-10-19T09:51:42.718Z,25.70
2022-10-19T10:02:35.708Z,25.31
2022-10-19T10:08:00.151Z,25.31
2022-10-19T10:13:22.878Z,25.20
2022-10-19T10:18:38.456Z,25.21
2022-10-19T10:24:22.030Z,25.78
2022-10-19T10:29:37.712Z,26.29
2022-10-19T10:34:56.895Z,26.59
2022-10-19T10:40:10.158Z,26.73
2022-10-19T10:50:54.526Z,26.88
2022-10-19T10:56:04.369Z,26.85
2022-10-19T11:01:27.784Z,26.71
2022-10-19T11:06:54.571Z,26.76
2022-10-19T11:12:10.628Z,26.63
2022-10-19T11:17:41.436Z,26.94
2022-10-19T11:23:54.064Z,26.88
2022-10-19T11:29:38.665Z,26.74
2022-10-19T11:35:27.110Z,26.51
2022-10-19T11:41:13.098Z,26.35
2022-10-19T11:46:58.439Z,26.18
2022-10-19T11:52:40.118Z,25.80
2022-10-19T11:58:25.454Z,25.63
2022-10-19T12:04:05.302Z,25.67
2022-10-19T12:10:07.918Z,25.73
2022-10-19T12:15:41.820Z,25.73
2022-10-19T12:20:55.533Z,25.61
2022-10-19T12:26:11.757Z,25.46
2022-10-19T12:31:22.542Z,25.20
2022-10-19T12:36:52.588Z,25.11
2022-10-19T12:42:48.919Z,25.07
2022-10-19T12:48:20.769Z,25.17
2022-10-19T12:53:49.405Z,25.21
2022-10-19T12:59:02.895Z,25.15
2022-10-19T13:04:25.382Z,25.13
2022-10-19T13:09:45.973Z,25.09
2022-10-19T13:14:56.168Z,25.05
2022-10-19T13:20:34.218Z,25.04
2022-10-19T13:25:42.577Z,25.04
2022-10-19T13:31:04.967Z,24.96
2022-10-19T13:36:19.254Z,24.90
2022-10-19T13:41:33.357Z,24.93
2022-10-19T13:47:20.034Z,24.96
2022-10-19T13:59:20.354Z,25.15
2022-10-19T14:05:30.895Z,25.32
2022-10-19T14:11:00.225Z,25.46
2022-10-19T14:16:35.795Z,25.54
2022-10-19T14:21:49.786Z,25.52
2022-10-19T14:26:56.812Z,25.44
2022-10-19T14:32:02.811Z,25.41
2022-10-19T14:37:47.638Z,25.38
2022-10-19T14:42:51.152Z,25.37
2022-10-19T14:48:12.005Z,25.46
2022-10-19T14:54:17.004Z,25.48
2022-10-19T14:59:55.451Z,25.47
2022-10-19T15:05:12.247Z,25.43
2022-10-19T15:10:53.398Z,25.31
2022-10-19T15:16:11.044Z,25.14
2022-10-19T15:21:38.376Z,25.02
2022-10-19T15:26:47.817Z,24.88
2022-10-19T15:32:00.041Z,24.80
2022-10-19T15:42:37.842Z,24.68
2022-10-19T15:48:12.672Z,24.58
2022-10-19T15:53:25.228Z,24.50
2022-10-19T15:58:37.006Z,24.45
2022-10-19T16:03:44.346Z,24.41
2022-10-19T16:08:57.407Z,24.37
2022-10-19T16:14:05.334Z,24.29
2022-10-19T16:19:16.774Z,24.20
2022-10-19T16:24:26.647Z,24.07
2022-10-19T16:29:33.163Z,23.97
2022-10-19T16:40:11.163Z,23.88
2022-10-19T16:45:31.358Z,23.81
2022-10-19T16:50:47.959Z,23.75
2022-10-19T16:55:55.568Z,23.66
2022-10-19T17:01:01.755Z,23.65
2022-10-19T17:06:14.630Z,23.63
2022-10-19T17:11:27.748Z,23.62
2022-10-19T17:17:12.402Z,23.59
2022-10-19T17:22:20.979Z,23.57
2022-10-19T17:27:30.317Z,23.55
2022-10-19T17:32:46.459Z,23.52
2022-10-19T17:37:57.386Z,23.48
2022-10-19T17:43:20.166Z,23.47
2022-10-19T17:48:29.457Z,23.46
2022-10-19T17:53:38.322Z,23.45
2022-10-19T17:58:47.585Z,23.44
2022-10-19T18:03:58.034Z,23.42
2022-10-19T18:09:07.180Z,23.41
2022-10-19T18:14:18.785Z,23.38
2022-10-19T18:19:25.721Z,23.35
2022-10-19T18:24:31.900Z,23.32
2022-10-19T18:29:40.463Z,23.33
2022-10-19T18:34:47.451Z,23.32
2022-10-19T18:39:52.690Z,23.32
2022-10-19T18:45:00.667Z,23.29
2022-10-19T18:55:29.951Z,23.29
2022-10-19T19:00:46.063Z,23.28
2022-10-19T19:05:52.155Z,23.26
2022-10-19T19:10:58.613Z,23.22
2022-10-19T19:16:04.603Z,23.20
2022-10-19T19:21:20.096Z,23.21
2022-10-19T19:26:27.925Z,23.18
2022-10-19T19:31:42.268Z,23.16
2022-10-19T19:36:49.266Z,23.15
2022-10-19T19:42:02.164Z,23.15
2022-10-19T19:47:17.346Z,23.14
2022-10-19T19:52:39.418Z,23.13
2022-10-19T19:57:54.538Z,23.10
2022-10-19T20:08:21.190Z,23.08
2022-10-19T20:13:26.027Z,23.05
2022-10-19T20:18:35.993Z,23.02
2022-10-19T20:23:39.900Z,22.99
2022-10-19T20:28:49.432Z,22.95
2022-10-19T20:33:55.368Z,22.92
2022-10-19T20:39:02.995Z,22.90
2022-10-19T20:44:10.310Z,22.86
2022-10-19T20:49:20.564Z,22.85
2022-10-19T20:54:34.466Z,22.83
2022-10-19T20:59:42.462Z,22.78
2022-10-19T21:04:45.964Z,22.76
2022-10-19T21:09:50.360Z,22.74
2022-10-19T21:15:01.213Z,22.73
2022-10-19T21:20:13.310Z,22.68
2022-10-19T21:25:17.730Z,22.65
2022-10-19T21:30:23.247Z,22.62
2022-10-19T21:35:29.895Z,22.55
2022-10-19T21:40:37.626Z,22.55
2022-10-19T21:45:56.914Z,22.53
2022-10-19T21:51:30.620Z,22.48
2022-10-19T21:56:36.787Z,22.44
2022-10-19T22:01:51.388Z,22.41
2022-10-19T22:07:00.858Z,22.38
2022-10-19T22:12:10.125Z,22.36
2022-10-19T22:17:20.648Z,22.32
2022-10-19T22:22:30.492Z,22.31
2022-10-19T22:27:37.386Z,22.30
2022-10-19T22:32:40.293Z,22.28
2022-10-19T22:37:49.156Z,22.27
2022-10-19T22:42:57.841Z,22.28
2022-10-19T22:48:05.806Z,22.29
2022-10-19T22:53:08.690Z,22.28
2022-10-19T22:58:19.345Z,22.29
2022-10-19T23:03:22.467Z,22.25
2022-10-19T23:08:30.024Z,22.21
2022-10-19T23:13:39.094Z,22.15
2022-10-19T23:18:47.588Z,22.06
2022-10-19T23:23:58.498Z,22.02
2022-10-19T23:29:09.555Z,21.97
2022-10-19T23:39:35.110Z,21.96
2022-10-19T23:44:40.189Z,21.94
2022-10-19T23:49:49.445Z,21.95
2022-10-19T23:55:09.781Z,21.98
